createdAt,value
2017-10-06T00:03:17.417Z,0.0
2017-10-06T00:13:31.713Z,0.0
2017-10-06T00:24:16.496Z,0.0
2017-10-06T00:34:30.573Z,0.0
2017-10-06T00:44:42.846Z,0.0
2017-10-06T00:54:57.357Z,0.0
2017-10-06T01:05:12.125Z,0.0
2017-10-06T01:15:57.017Z,0.0
2017-10-06T01:26:41.944Z,0.0
2017-10-06T01:36:54.031Z,0.0
2017-10-06T01:47:06.423Z,0.0
2017-10-06T01:57:20.836Z,0.0
2017-10-06T02:07:34.763Z,0.0
2017-10-06T02:17:49.038Z,0.0
2017-10-06T02:28:03.447Z,0.0
2017-10-06T02:38:17.563Z,0.0
2017-10-06T02:48:31.753Z,0.0
2017-10-06T02:59:16.483Z,0.0
2017-10-06T03:10:01.171Z,0.0
2017-10-06T03:20:46.104Z,0.0
2017-10-06T03:31:30.642Z,0.0
2017-10-06T03:41:44.967Z,0.0
2017-10-06T03:51:59.235Z,0.0
2017-10-06T04:02:13.560Z,0.0
2017-10-06T04:12:25.594Z,0.0
2017-10-06T04:22:39.872Z,0.0
2017-10-06T04:32:54.440Z,0.0
2017-10-06T04:43:39.074Z,0.0
2017-10-06T04:54:23.754Z,0.0
2017-10-06T05:05:08.591Z,0.0
2017-10-06T05:15:53.569Z,4.0
2017-10-06T05:26:13.110Z,12.0
2017-10-06T05:36:27.638Z,88.0
2017-10-06T05:46:41.831Z,220.0
2017-10-06T05:56:56.110Z,524.0
2017-10-06T06:07:10.424Z,604.0
2017-10-06T06:17:22.534Z,624.0
2017-10-06T06:27:36.815Z,972.0
2017-10-06T06:37:51.247Z,1528.0
2017-10-06T06:48:05.445Z,1376.0
2017-10-06T06:58:51.066Z,1684.0
2017-10-06T07:09:05.502Z,3140.0
2017-10-06T07:19:19.658Z,4560.0
2017-10-06T07:30:04.428Z,1924.0
2017-10-06T07:40:49.268Z,3720.0
2017-10-06T07:51:01.259Z,3536.0
2017-10-06T08:01:45.959Z,3756.0
2017-10-06T08:12:30.699Z,2244.0
2017-10-06T08:23:15.623Z,2396.0
2017-10-06T08:34:00.670Z,1204.0
2017-10-06T08:44:14.495Z,1100.0
2017-10-06T08:54:28.968Z,2852.0
2017-10-06T09:04:43.014Z,1524.0
2017-10-06T09:14:57.663Z,1364.0
2017-10-06T09:25:32.999Z,3364.0
2017-10-06T09:35:47.441Z,3316.0
2017-10-06T09:46:01.607Z,4076.0
2017-10-06T09:57:33.535Z,4288.0
2017-10-06T10:07:47.962Z,23168.0
2017-10-06T10:18:02.100Z,13224.0
2017-10-06T10:28:16.402Z,13576.0
2017-10-06T10:38:30.616Z,54880.0
2017-10-06T10:51:32.511Z,61696.0
2017-10-06T11:02:31.695Z,87744.0
2017-10-06T11:12:46.378Z,22592.0
2017-10-06T11:23:32.064Z,16256.0
2017-10-06T11:33:52.870Z,64032.0
2017-10-06T11:44:07.603Z,84768.0
2017-10-06T11:54:22.326Z,8956.0
2017-10-06T12:04:36.739Z,76320.0
2017-10-06T12:14:51.169Z,29056.0
2017-10-06T12:25:36.798Z,1280.0
2017-10-06T12:36:22.334Z,20128.0
2017-10-06T12:46:37.312Z,79968.0
2017-10-06T12:56:51.983Z,67072.0
2017-10-06T13:07:06.903Z,76320.0
2017-10-06T13:17:26.000Z,8036.0
2017-10-06T13:27:41.110Z,21312.0
2017-10-06T13:38:04.135Z,9884.0
2017-10-06T13:48:20.927Z,3968.0
2017-10-06T13:58:40.999Z,14720.0
2017-10-06T14:08:57.880Z,49888.0
2017-10-06T14:19:17.288Z,18624.0
2017-10-06T14:29:36.242Z,22208.0
2017-10-06T14:40:01.200Z,8580.0
2017-10-06T14:50:15.482Z,2228.0
2017-10-06T15:00:29.543Z,1732.0
2017-10-06T15:10:49.003Z,2136.0
2017-10-06T15:21:15.530Z,4396.0
2017-10-06T15:31:36.268Z,2540.0
2017-10-06T15:42:02.744Z,3196.0
2017-10-06T15:52:49.806Z,1648.0
2017-10-06T16:03:40.027Z,1764.0
2017-10-06T16:13:59.455Z,1256.0
2017-10-06T16:24:17.015Z,1248.0
2017-10-06T16:34:42.115Z,912.0
2017-10-06T16:45:04.575Z,468.0
2017-10-06T16:55:30.091Z,180.0
2017-10-06T17:07:01.677Z,48.0
2017-10-06T17:17:15.473Z,8.0
2017-10-06T17:28:02.952Z,0.0
2017-10-06T17:38:14.871Z,0.0
2017-10-06T17:48:41.636Z,0.0
2017-10-06T17:58:58.720Z,0.0
2017-10-06T18:09:48.643Z,0.0
2017-10-06T18:20:05.046Z,0.0
2017-10-06T18:30:27.151Z,0.0
2017-10-06T18:40:51.085Z,0.0
2017-10-06T18:51:06.834Z,0.0
2017-10-06T19:01:23.733Z,0.0
2017-10-06T19:11:42.031Z,0.0
2017-10-06T19:22:31.694Z,0.0
2017-10-06T19:32:48.761Z,0.0
2017-10-06T19:43:08.390Z,0.0
2017-10-06T19:53:25.531Z,0.0
2017-10-06T20:03:43.301Z,0.0
2017-10-06T20:13:57.472Z,0.0
2017-10-06T20:24:11.376Z,0.0
2017-10-06T20:34:57.431Z,0.0
2017-10-06T20:45:12.627Z,0.0
2017-10-06T20:55:31.554Z,0.0
2017-10-06T21:05:53.319Z,0.0
2017-10-06T21:16:18.813Z,0.0
2017-10-06T21:26:34.529Z,0.0
2017-10-06T21:36:47.442Z,0.0
2017-10-06T21:47:01.570Z,0.0
2017-10-06T21:57:27.702Z,0.0
2017-10-06T22:07:42.168Z,0.0
2017-10-06T22:17:56.304Z,0.0
2017-10-06T22:28:18.816Z,0.0
2017-10-06T22:38:32.351Z,0.0
2017-10-06T22:48:44.115Z,0.0
2017-10-06T22:58:57.932Z,0.0
2017-10-06T23:09:12.050Z,0.0
2017-10-06T23:19:25.616Z,0.0
2017-10-06T23:30:11.871Z,0.0
2017-10-06T23:40:25.568Z,0.0
2017-10-06T23:51:11.246Z,0.0
